createdAt,value
2017-10-12T00:00:13.083Z,0
2017-10-12T00:01:14.916Z,0
2017-10-12T00:02:16.732Z,0
2017-10-12T00:03:18.612Z,0
2017-10-12T00:04:20.500Z,0
2017-10-12T00:05:22.380Z,0
2017-10-12T00:06:36.533Z,0
2017-10-12T00:07:38.410Z,0
2017-10-12T00:08:40.287Z,0
2017-10-12T00:09:42.166Z,0
2017-10-12T00:10:43.986Z,0
2017-10-12T00:11:45.802Z,0
2017-10-12T00:12:47.684Z,0
2017-10-12T00:13:49.561Z,0
2017-10-12T00:14:51.439Z,0
2017-10-12T00:16:05.606Z,0
2017-10-12T00:17:07.482Z,0
2017-10-12T00:18:09.361Z,0
2017-10-12T00:19:11.240Z,0
2017-10-12T00:20:13.059Z,0
2017-10-12T00:21:14.888Z,0
2017-10-12T00:22:16.764Z,0
2017-10-12T00:23:18.652Z,0
2017-10-12T00:24:20.530Z,0
2017-10-12T00:25:34.734Z,0
2017-10-12T00:26:36.611Z,0
2017-10-12T00:27:38.492Z,0
2017-10-12T00:28:40.370Z,0
2017-10-12T00:29:42.190Z,0
2017-10-12T00:30:44.009Z,0
2017-10-12T00:31:45.886Z,0
2017-10-12T00:32:47.765Z,0
2017-10-12T00:33:49.645Z,0
2017-10-12T00:35:03.848Z,0
2017-10-12T00:36:05.726Z,0
2017-10-12T00:37:07.605Z,0
2017-10-12T00:38:09.484Z,0
2017-10-12T00:39:11.309Z,0
2017-10-12T00:40:13.122Z,0
2017-10-12T00:41:14.999Z,0
2017-10-12T00:42:16.878Z,0
2017-10-12T00:43:18.756Z,0
2017-10-12T00:44:32.958Z,0
2017-10-12T00:45:34.833Z,0
2017-10-12T00:46:36.714Z,0
2017-10-12T00:47:38.592Z,0
2017-10-12T00:48:40.423Z,0
2017-10-12T00:49:42.249Z,0
2017-10-12T00:50:44.140Z,0
2017-10-12T00:51:46.015Z,0
2017-10-12T00:52:47.903Z,0
2017-10-12T00:54:02.057Z,0
2017-10-12T00:55:03.935Z,0
2017-10-12T00:56:05.813Z,0
2017-10-12T00:57:07.691Z,0
2017-10-12T00:58:09.517Z,0
2017-10-12T00:59:11.330Z,0
2017-10-12T01:00:13.208Z,0
2017-10-12T01:01:15.085Z,0
2017-10-12T01:02:16.964Z,0
2017-10-12T01:03:31.116Z,0
2017-10-12T01:04:32.993Z,0
2017-10-12T01:05:34.873Z,0
2017-10-12T01:06:36.750Z,0
2017-10-12T01:07:38.582Z,0
2017-10-12T01:08:40.397Z,0
2017-10-12T01:09:42.276Z,0
2017-10-12T01:10:44.156Z,0
2017-10-12T01:11:46.035Z,0
2017-10-12T01:13:00.189Z,0
2017-10-12T01:14:02.066Z,0
2017-10-12T01:15:03.948Z,0
2017-10-12T01:16:05.822Z,0
2017-10-12T01:17:07.641Z,0
2017-10-12T01:18:09.457Z,0
2017-10-12T01:19:11.338Z,0
2017-10-12T01:20:13.216Z,0
2017-10-12T01:21:15.096Z,0
2017-10-12T01:22:29.247Z,0
2017-10-12T01:23:31.125Z,0
2017-10-12T01:24:33.010Z,0
2017-10-12T01:25:34.889Z,0
2017-10-12T01:26:36.704Z,0
2017-10-12T01:27:38.520Z,0
2017-10-12T01:28:40.412Z,0
2017-10-12T01:29:42.290Z,0
2017-10-12T01:30:44.169Z,0
2017-10-12T01:31:58.324Z,0
2017-10-12T01:33:00.200Z,0
2017-10-12T01:34:02.079Z,0
2017-10-12T01:35:03.974Z,0
2017-10-12T01:36:05.780Z,0
2017-10-12T01:37:07.598Z,0
2017-10-12T01:38:09.476Z,0
2017-10-12T01:39:11.358Z,0
2017-10-12T01:40:13.249Z,0
2017-10-12T01:41:27.403Z,0
2017-10-12T01:42:29.285Z,0
2017-10-12T01:43:31.185Z,0
2017-10-12T01:44:33.123Z,0
2017-10-12T01:45:34.949Z,0
2017-10-12T01:46:36.775Z,0
2017-10-12T01:47:38.645Z,0
2017-10-12T01:48:40.538Z,0
2017-10-12T01:49:42.420Z,0
2017-10-12T01:50:56.576Z,0
2017-10-12T01:51:58.457Z,0
2017-10-12T01:53:00.340Z,0
2017-10-12T01:54:02.231Z,0
2017-10-12T01:55:04.054Z,0
2017-10-12T01:56:05.873Z,0
2017-10-12T01:57:07.752Z,0
2017-10-12T01:58:09.649Z,0
2017-10-12T01:59:11.477Z,0
2017-10-12T02:00:25.631Z,0
2017-10-12T02:01:27.512Z,0
2017-10-12T02:02:29.395Z,0
2017-10-12T02:03:31.279Z,0
2017-10-12T02:04:33.101Z,0
2017-10-12T02:05:34.922Z,0
2017-10-12T02:06:36.803Z,0
2017-10-12T02:07:38.683Z,0
2017-10-12T02:08:40.565Z,0
2017-10-12T02:09:54.731Z,0
2017-10-12T02:10:56.611Z,0
2017-10-12T02:11:58.494Z,0
2017-10-12T02:13:00.375Z,0
2017-10-12T02:14:02.197Z,0
2017-10-12T02:15:04.023Z,0
2017-10-12T02:16:05.897Z,0
2017-10-12T02:17:07.775Z,0
2017-10-12T02:18:09.655Z,0
2017-10-12T02:19:23.822Z,0
2017-10-12T02:20:25.701Z,0
2017-10-12T02:21:27.585Z,0
2017-10-12T02:22:29.463Z,0
2017-10-12T02:23:31.285Z,0
2017-10-12T02:24:33.102Z,0
2017-10-12T02:25:34.982Z,0
2017-10-12T02:26:36.865Z,0
2017-10-12T02:27:38.749Z,0
2017-10-12T02:28:52.949Z,0
2017-10-12T02:29:54.828Z,0
2017-10-12T02:30:56.720Z,0
2017-10-12T02:31:58.595Z,0
2017-10-12T02:33:00.454Z,0
2017-10-12T02:34:02.272Z,0
2017-10-12T02:35:04.145Z,0
2017-10-12T02:36:06.027Z,0
2017-10-12T02:37:07.910Z,0
2017-10-12T02:38:22.063Z,0
2017-10-12T02:39:23.957Z,0
2017-10-12T02:40:25.833Z,0
2017-10-12T02:41:27.712Z,0
2017-10-12T02:42:29.545Z,0
2017-10-12T02:43:31.364Z,0
2017-10-12T02:44:33.236Z,0
2017-10-12T02:45:35.116Z,0
2017-10-12T02:46:36.995Z,0
2017-10-12T02:47:51.153Z,0
2017-10-12T02:48:53.038Z,0
2017-10-12T02:49:54.917Z,0
2017-10-12T02:50:56.798Z,0
2017-10-12T02:51:58.621Z,0
2017-10-12T02:53:00.442Z,0
2017-10-12T02:54:02.321Z,0
2017-10-12T02:55:04.198Z,0
2017-10-12T02:56:06.081Z,0
2017-10-12T02:57:20.236Z,0
2017-10-12T02:58:22.118Z,0
2017-10-12T02:59:23.999Z,0
2017-10-12T03:00:25.881Z,0
2017-10-12T03:01:27.703Z,0
2017-10-12T03:02:29.522Z,0
2017-10-12T03:03:31.414Z,0
2017-10-12T03:04:33.280Z,0
2017-10-12T03:05:35.160Z,0
2017-10-12T03:06:49.324Z,0
2017-10-12T03:07:51.217Z,0
2017-10-12T03:08:53.097Z,0
2017-10-12T03:09:54.980Z,0
2017-10-12T03:10:56.803Z,0
2017-10-12T03:11:58.621Z,0
2017-10-12T03:13:00.501Z,0
2017-10-12T03:14:02.388Z,0
2017-10-12T03:15:04.261Z,0
2017-10-12T03:16:18.426Z,0
2017-10-12T03:17:20.320Z,0
2017-10-12T03:18:22.198Z,0
2017-10-12T03:19:24.077Z,0
2017-10-12T03:20:25.899Z,0
2017-10-12T03:21:27.718Z,0
2017-10-12T03:22:29.600Z,0
2017-10-12T03:23:31.494Z,0
2017-10-12T03:24:33.376Z,0
2017-10-12T03:25:47.532Z,0
2017-10-12T03:26:49.413Z,0
2017-10-12T03:27:51.294Z,0
2017-10-12T03:28:53.179Z,0
2017-10-12T03:29:54.999Z,0
2017-10-12T03:30:56.820Z,0
2017-10-12T03:31:58.700Z,0
2017-10-12T03:33:00.575Z,0
2017-10-12T03:34:02.456Z,0
2017-10-12T03:35:16.664Z,0
2017-10-12T03:36:18.544Z,0
2017-10-12T03:37:20.424Z,0
2017-10-12T03:38:22.306Z,0
2017-10-12T03:39:24.127Z,0
2017-10-12T03:40:25.948Z,0
2017-10-12T03:41:27.829Z,0
2017-10-12T03:42:29.718Z,0
2017-10-12T03:43:31.610Z,0
2017-10-12T03:44:45.766Z,0
2017-10-12T03:45:47.651Z,0
2017-10-12T03:46:49.534Z,0
2017-10-12T03:47:51.417Z,0
2017-10-12T03:48:53.239Z,0
2017-10-12T03:49:55.057Z,0
2017-10-12T03:50:56.938Z,0
2017-10-12T03:51:58.820Z,0
2017-10-12T03:53:00.702Z,0
2017-10-12T03:54:14.855Z,0
2017-10-12T03:55:16.746Z,0
2017-10-12T03:56:18.627Z,0
2017-10-12T03:57:20.508Z,0
2017-10-12T03:58:22.340Z,0
2017-10-12T03:59:24.149Z,0
2017-10-12T04:00:26.038Z,0
2017-10-12T04:01:27.919Z,0
2017-10-12T04:02:29.802Z,0
2017-10-12T04:03:43.958Z,0
2017-10-12T04:04:45.839Z,0
2017-10-12T04:05:47.718Z,0
2017-10-12T04:06:49.594Z,0
2017-10-12T04:07:51.415Z,0
2017-10-12T04:08:53.237Z,0
2017-10-12T04:09:55.110Z,0
2017-10-12T04:10:56.993Z,0
2017-10-12T04:11:58.877Z,0
2017-10-12T04:13:13.083Z,0
2017-10-12T04:14:14.964Z,0
2017-10-12T04:15:16.846Z,0
2017-10-12T04:16:18.727Z,0
2017-10-12T04:17:20.558Z,0
2017-10-12T04:18:22.380Z,0
2017-10-12T04:19:24.258Z,0
2017-10-12T04:20:26.135Z,0
2017-10-12T04:21:28.022Z,0
2017-10-12T04:22:42.172Z,0
2017-10-12T04:23:44.054Z,0
2017-10-12T04:24:45.937Z,0
2017-10-12T04:25:47.820Z,0
2017-10-12T04:26:49.643Z,0
2017-10-12T04:27:51.462Z,0
2017-10-12T04:28:53.341Z,0
2017-10-12T04:29:55.218Z,0
2017-10-12T04:30:57.124Z,0
2017-10-12T04:32:11.300Z,0
2017-10-12T04:33:13.193Z,0
2017-10-12T04:34:15.076Z,0
2017-10-12T04:35:16.958Z,0
2017-10-12T04:36:18.778Z,0
2017-10-12T04:37:20.595Z,0
2017-10-12T04:38:22.475Z,0
2017-10-12T04:39:24.365Z,0
2017-10-12T04:40:26.247Z,0
2017-10-12T04:41:40.450Z,0
2017-10-12T04:42:42.335Z,0
2017-10-12T04:43:44.214Z,0
2017-10-12T04:44:46.097Z,0
2017-10-12T04:45:47.918Z,0
2017-10-12T04:46:49.739Z,0
2017-10-12T04:47:51.620Z,0
2017-10-12T04:48:53.501Z,0
2017-10-12T04:49:55.383Z,4
2017-10-12T04:51:09.538Z,4
2017-10-12T04:52:11.417Z,0
2017-10-12T04:53:13.300Z,4
2017-10-12T04:54:15.183Z,4
2017-10-12T04:55:17.005Z,4
2017-10-12T04:56:18.821Z,8
2017-10-12T04:57:20.701Z,8
2017-10-12T04:58:22.580Z,8
2017-10-12T04:59:24.460Z,12
2017-10-12T05:00:38.619Z,16
2017-10-12T05:01:40.504Z,20
2017-10-12T05:02:42.386Z,20
2017-10-12T05:03:44.272Z,24
2017-10-12T05:04:46.095Z,28
2017-10-12T05:05:47.914Z,36
2017-10-12T05:06:49.798Z,40
2017-10-12T05:07:51.678Z,48
2017-10-12T05:08:53.562Z,56
2017-10-12T05:10:07.766Z,68
2017-10-12T05:11:09.652Z,80
2017-10-12T05:12:11.535Z,96
2017-10-12T05:13:13.420Z,112
2017-10-12T05:14:15.243Z,128
2017-10-12T05:15:17.065Z,144
2017-10-12T05:16:18.945Z,164
2017-10-12T05:17:20.830Z,188
2017-10-12T05:18:22.712Z,212
2017-10-12T05:19:36.918Z,248
2017-10-12T05:20:38.806Z,272
2017-10-12T05:21:40.691Z,300
2017-10-12T05:22:42.580Z,336
2017-10-12T05:23:44.402Z,364
2017-10-12T05:24:46.222Z,396
2017-10-12T05:25:48.116Z,428
2017-10-12T05:26:50.014Z,464
2017-10-12T05:27:51.903Z,500
2017-10-12T05:29:06.060Z,540
2017-10-12T05:30:07.945Z,576
2017-10-12T05:31:09.839Z,612
2017-10-12T05:32:11.721Z,652
2017-10-12T05:33:13.542Z,688
2017-10-12T05:34:15.363Z,724
2017-10-12T05:35:17.206Z,764
2017-10-12T05:36:19.051Z,800
2017-10-12T05:37:20.875Z,832
2017-10-12T05:38:35.079Z,872
2017-10-12T05:39:36.964Z,904
2017-10-12T05:40:38.854Z,940
2017-10-12T05:41:40.739Z,976
2017-10-12T05:42:42.569Z,1016
2017-10-12T05:43:44.386Z,1052
2017-10-12T05:44:46.270Z,1096
2017-10-12T05:45:48.158Z,1132
2017-10-12T05:46:50.061Z,1168
2017-10-12T05:48:04.204Z,1212
2017-10-12T05:49:06.104Z,1256
2017-10-12T05:50:07.989Z,1300
2017-10-12T05:51:09.881Z,1356
2017-10-12T05:52:11.706Z,1396
2017-10-12T05:53:13.535Z,1440
2017-10-12T05:54:15.419Z,1484
2017-10-12T05:55:17.303Z,1524
2017-10-12T05:56:19.201Z,1560
2017-10-12T05:57:33.358Z,1608
2017-10-12T05:58:35.248Z,1640
2017-10-12T05:59:37.132Z,1664
2017-10-12T06:00:39.021Z,1680
2017-10-12T06:01:40.847Z,1684
2017-10-12T06:02:42.675Z,1700
2017-10-12T06:03:44.562Z,1736
2017-10-12T06:04:46.449Z,1768
2017-10-12T06:05:48.336Z,1768
2017-10-12T06:07:02.496Z,1812
2017-10-12T06:08:04.384Z,1872
2017-10-12T06:09:06.270Z,1928
2017-10-12T06:10:08.156Z,1972
2017-10-12T06:11:09.982Z,2004
2017-10-12T06:12:11.806Z,2044
2017-10-12T06:13:13.693Z,2092
2017-10-12T06:14:15.580Z,2140
2017-10-12T06:15:17.470Z,2220
2017-10-12T06:16:31.630Z,2312
2017-10-12T06:17:33.517Z,2372
2017-10-12T06:18:35.405Z,2432
2017-10-12T06:19:37.294Z,2476
2017-10-12T06:20:39.120Z,2508
2017-10-12T06:21:40.946Z,2520
2017-10-12T06:22:42.835Z,2524
2017-10-12T06:23:44.721Z,2516
2017-10-12T06:24:46.610Z,2500
2017-10-12T06:26:00.770Z,2468
2017-10-12T06:27:02.658Z,2432
2017-10-12T06:28:04.545Z,2400
2017-10-12T06:29:06.434Z,2376
2017-10-12T06:30:08.259Z,2404
2017-10-12T06:31:10.083Z,2468
2017-10-12T06:32:11.970Z,2508
2017-10-12T06:33:13.867Z,2512
2017-10-12T06:34:15.757Z,2448
2017-10-12T06:35:29.917Z,2452
2017-10-12T06:36:31.804Z,2456
2017-10-12T06:37:33.696Z,2508
2017-10-12T06:38:35.583Z,2668
2017-10-12T06:39:37.415Z,2704
2017-10-12T06:40:39.237Z,2756
2017-10-12T06:41:41.125Z,2856
2017-10-12T06:42:43.011Z,2864
2017-10-12T06:43:44.904Z,2880
2017-10-12T06:44:59.063Z,2936
2017-10-12T06:46:00.951Z,2956
2017-10-12T06:47:02.849Z,3004
2017-10-12T06:48:04.739Z,3072
2017-10-12T06:49:06.566Z,3160
2017-10-12T06:50:08.389Z,3224
2017-10-12T06:51:10.282Z,3256
2017-10-12T06:52:12.165Z,3256
2017-10-12T06:53:14.059Z,3284
2017-10-12T06:54:28.217Z,3320
2017-10-12T06:55:30.105Z,3348
2017-10-12T06:56:31.992Z,3380
2017-10-12T06:57:33.880Z,3424
2017-10-12T06:58:35.710Z,3472
2017-10-12T06:59:37.534Z,3508
2017-10-12T07:00:39.420Z,3564
2017-10-12T07:01:41.324Z,3620
2017-10-12T07:02:43.213Z,3680
2017-10-12T07:03:57.413Z,3776
2017-10-12T07:04:59.294Z,3856
2017-10-12T07:06:01.180Z,3960
2017-10-12T07:07:03.076Z,4084
2017-10-12T07:08:04.901Z,4232
2017-10-12T07:09:06.724Z,4400
2017-10-12T07:10:08.635Z,4588
2017-10-12T07:11:10.505Z,4792
2017-10-12T07:12:12.406Z,5012
2017-10-12T07:13:26.552Z,5356
2017-10-12T07:14:28.441Z,5732
2017-10-12T07:15:30.331Z,6220
2017-10-12T07:16:32.221Z,6664
2017-10-12T07:17:34.047Z,7152
2017-10-12T07:18:35.872Z,7404
2017-10-12T07:19:37.761Z,7724
2017-10-12T07:20:39.648Z,8140
2017-10-12T07:21:41.538Z,8656
2017-10-12T07:22:55.699Z,9436
2017-10-12T07:23:57.592Z,10112
2017-10-12T07:24:59.475Z,10516
2017-10-12T07:26:01.364Z,10288
2017-10-12T07:27:03.557Z,10064
2017-10-12T07:28:05.396Z,10092
2017-10-12T07:29:07.282Z,10108
2017-10-12T07:30:09.176Z,10072
2017-10-12T07:31:11.065Z,9632
2017-10-12T07:32:25.226Z,8992
2017-10-12T07:33:27.114Z,8516
2017-10-12T07:34:29.001Z,8108
2017-10-12T07:35:30.887Z,7704
2017-10-12T07:36:32.728Z,7560
2017-10-12T07:37:34.553Z,7788
2017-10-12T07:38:36.439Z,8144
2017-10-12T07:39:38.529Z,8556
2017-10-12T07:40:40.418Z,8924
2017-10-12T07:41:54.951Z,9248
2017-10-12T07:42:56.824Z,9312
2017-10-12T07:43:58.715Z,9012
2017-10-12T07:45:00.606Z,8772
2017-10-12T07:46:02.435Z,8100
2017-10-12T07:47:04.262Z,7108
2017-10-12T07:48:06.151Z,6424
2017-10-12T07:49:08.040Z,5592
2017-10-12T07:50:09.935Z,4844
2017-10-12T07:51:24.098Z,4544
2017-10-12T07:52:25.985Z,3944
2017-10-12T07:53:27.876Z,4596
2017-10-12T07:54:29.762Z,4844
2017-10-12T07:55:31.594Z,4384
2017-10-12T07:56:33.420Z,4060
2017-10-12T07:57:35.306Z,3944
2017-10-12T07:58:37.197Z,3436
2017-10-12T07:59:39.093Z,3608
2017-10-12T08:00:53.272Z,5084
2017-10-12T08:01:55.161Z,5476
2017-10-12T08:02:57.051Z,5632
2017-10-12T08:03:58.941Z,5720
2017-10-12T08:05:00.772Z,5488
2017-10-12T08:06:02.596Z,4748
2017-10-12T08:07:04.498Z,4368
2017-10-12T08:08:06.386Z,4784
2017-10-12T08:09:08.279Z,5728
2017-10-12T08:10:22.442Z,5776
2017-10-12T08:11:24.452Z,5832
2017-10-12T08:12:26.367Z,5608
2017-10-12T08:13:28.359Z,5064
2017-10-12T08:14:30.230Z,4780
2017-10-12T08:15:32.050Z,5280
2017-10-12T08:16:33.977Z,6184
2017-10-12T08:17:35.906Z,7296
2017-10-12T08:18:37.795Z,8928
2017-10-12T08:19:52.029Z,9500
2017-10-12T08:20:54.011Z,9320
2017-10-12T08:21:55.901Z,9212
2017-10-12T08:22:57.846Z,9440
2017-10-12T08:23:59.708Z,9752
2017-10-12T08:25:01.550Z,9816
2017-10-12T08:26:03.442Z,9660
2017-10-12T08:27:05.335Z,9596
2017-10-12T08:28:07.293Z,9880
2017-10-12T08:29:21.585Z,10180
2017-10-12T08:30:23.467Z,8968
2017-10-12T08:31:25.358Z,7956
2017-10-12T08:32:27.246Z,8040
2017-10-12T08:33:29.089Z,8828
2017-10-12T08:34:30.913Z,9536
2017-10-12T08:35:32.802Z,9608
2017-10-12T08:36:34.690Z,9340
2017-10-12T08:37:36.594Z,8736
2017-10-12T08:38:50.746Z,8144
2017-10-12T08:39:52.640Z,8264
2017-10-12T08:40:54.541Z,8972
2017-10-12T08:41:56.425Z,8636
2017-10-12T08:42:58.253Z,7192
2017-10-12T08:44:00.083Z,7128
2017-10-12T08:45:01.971Z,8072
2017-10-12T08:46:03.871Z,9352
2017-10-12T08:47:05.783Z,9784
2017-10-12T08:48:19.974Z,9132
2017-10-12T08:49:21.918Z,6952
2017-10-12T08:50:23.805Z,5512
2017-10-12T08:51:25.696Z,4964
2017-10-12T08:52:27.545Z,4872
2017-10-12T08:53:29.396Z,4728
2017-10-12T08:54:31.287Z,4296
2017-10-12T08:55:33.202Z,3920
2017-10-12T08:56:35.092Z,4492
2017-10-12T08:57:49.254Z,4896
2017-10-12T08:58:51.184Z,4360
2017-10-12T08:59:53.076Z,4284
2017-10-12T09:00:54.958Z,5048
2017-10-12T09:01:56.791Z,4516
2017-10-12T09:02:58.623Z,3944
2017-10-12T09:04:00.523Z,4524
2017-10-12T09:05:02.405Z,5616
2017-10-12T09:06:04.295Z,6576
2017-10-12T09:07:18.458Z,7928
2017-10-12T09:08:20.347Z,7720
2017-10-12T09:09:22.330Z,8008
2017-10-12T09:10:24.219Z,7756
2017-10-12T09:11:26.046Z,6804
2017-10-12T09:12:27.873Z,6088
2017-10-12T09:13:29.759Z,6688
2017-10-12T09:14:31.658Z,6756
2017-10-12T09:15:33.547Z,5648
2017-10-12T09:16:47.709Z,4872
2017-10-12T09:17:49.615Z,5640
2017-10-12T09:18:51.490Z,4780
2017-10-12T09:19:53.456Z,5200
2017-10-12T09:20:55.328Z,6600
2017-10-12T09:21:57.154Z,6588
2017-10-12T09:22:59.047Z,6276
2017-10-12T09:24:01.329Z,6796
2017-10-12T09:25:03.378Z,7756
2017-10-12T09:26:17.514Z,8344
2017-10-12T09:27:19.404Z,8828
2017-10-12T09:28:21.378Z,10284
2017-10-12T09:29:23.364Z,10168
2017-10-12T09:30:25.200Z,10624
2017-10-12T09:31:27.024Z,11520
2017-10-12T09:32:28.920Z,11360
2017-10-12T09:33:30.810Z,10956
2017-10-12T09:34:32.697Z,11304
2017-10-12T09:35:46.860Z,11580
2017-10-12T09:36:48.751Z,10676
2017-10-12T09:37:50.638Z,10284
2017-10-12T09:38:52.531Z,11564
2017-10-12T09:39:54.370Z,11756
2017-10-12T09:40:56.199Z,11308
2017-10-12T09:41:58.093Z,11744
2017-10-12T09:42:59.982Z,12036
2017-10-12T09:44:01.873Z,12352
2017-10-12T09:45:16.034Z,11744
2017-10-12T09:46:17.925Z,9824
2017-10-12T09:47:19.816Z,7716
2017-10-12T09:48:21.708Z,5208
2017-10-12T09:49:23.537Z,3552
2017-10-12T09:50:25.363Z,2956
2017-10-12T09:51:27.252Z,3088
2017-10-12T09:52:29.142Z,4236
2017-10-12T09:53:31.032Z,4172
2017-10-12T09:54:45.201Z,4688
2017-10-12T09:55:47.094Z,6268
2017-10-12T09:56:48.982Z,6688
2017-10-12T09:57:50.883Z,6796
2017-10-12T09:58:52.725Z,7420
2017-10-12T09:59:54.541Z,8080
2017-10-12T10:00:56.444Z,8668
2017-10-12T10:01:58.335Z,8320
2017-10-12T10:03:00.235Z,7912
2017-10-12T10:04:14.395Z,7868
2017-10-12T10:05:16.294Z,8504
2017-10-12T10:06:18.172Z,8820
2017-10-12T10:07:20.060Z,9188
2017-10-12T10:08:21.889Z,8688
2017-10-12T10:09:23.719Z,8060
2017-10-12T10:10:25.609Z,6772
2017-10-12T10:11:27.497Z,6568
2017-10-12T10:12:29.388Z,6396
2017-10-12T10:13:43.557Z,5756
2017-10-12T10:14:45.443Z,5644
2017-10-12T10:15:47.332Z,5492
2017-10-12T10:16:49.224Z,5200
2017-10-12T10:17:51.054Z,5180
2017-10-12T10:18:52.886Z,5372
2017-10-12T10:19:54.781Z,5616
2017-10-12T10:20:56.679Z,5556
2017-10-12T10:21:58.563Z,5284
2017-10-12T10:23:12.781Z,4972
2017-10-12T10:24:14.667Z,4992
2017-10-12T10:25:16.559Z,4832
2017-10-12T10:26:18.445Z,4868
2017-10-12T10:27:20.279Z,4780
2017-10-12T10:28:22.108Z,4796
2017-10-12T10:29:24.005Z,4936
2017-10-12T10:30:25.893Z,5048
2017-10-12T10:31:27.836Z,4912
2017-10-12T10:32:42.044Z,5324
2017-10-12T10:33:43.934Z,5864
2017-10-12T10:34:45.824Z,5356
2017-10-12T10:35:47.714Z,5784
2017-10-12T10:36:49.556Z,6868
2017-10-12T10:37:51.374Z,8528
2017-10-12T10:38:53.266Z,9408
2017-10-12T10:39:55.155Z,7736
2017-10-12T10:40:57.050Z,7636
2017-10-12T10:42:11.213Z,7584
2017-10-12T10:43:13.105Z,6944
2017-10-12T10:44:14.994Z,8296
2017-10-12T10:45:16.879Z,8432
2017-10-12T10:46:18.713Z,8392
2017-10-12T10:47:20.538Z,8820
2017-10-12T10:48:22.443Z,9012
2017-10-12T10:49:24.319Z,9304
2017-10-12T10:50:26.217Z,10400
2017-10-12T10:51:40.403Z,9092
2017-10-12T10:52:42.273Z,8704
2017-10-12T10:53:44.162Z,10112
2017-10-12T10:54:46.051Z,10972
2017-10-12T10:55:47.883Z,10976
2017-10-12T10:56:49.725Z,10824
2017-10-12T10:57:51.618Z,10780
2017-10-12T10:58:53.502Z,11916
2017-10-12T10:59:55.394Z,11036
2017-10-12T11:01:09.558Z,8756
2017-10-12T11:02:11.445Z,9124
2017-10-12T11:03:13.337Z,10368
2017-10-12T11:04:15.227Z,10712
2017-10-12T11:05:17.058Z,10192
2017-10-12T11:06:18.894Z,10308
2017-10-12T11:07:20.777Z,8928
2017-10-12T11:08:22.668Z,8364
2017-10-12T11:09:24.556Z,8796
2017-10-12T11:10:38.737Z,8316
2017-10-12T11:11:40.621Z,8340
2017-10-12T11:12:42.520Z,8876
2017-10-12T11:13:44.411Z,10216
2017-10-12T11:14:46.241Z,11360
2017-10-12T11:15:48.070Z,10840
2017-10-12T11:16:49.956Z,8980
2017-10-12T11:17:51.844Z,8448
2017-10-12T11:18:53.734Z,9320
2017-10-12T11:20:07.896Z,8756
2017-10-12T11:21:09.785Z,7700
2017-10-12T11:22:11.677Z,6936
2017-10-12T11:23:13.565Z,7288
2017-10-12T11:24:15.396Z,7844
2017-10-12T11:25:17.225Z,8372
2017-10-12T11:26:19.121Z,8124
2017-10-12T11:27:21.003Z,8988
2017-10-12T11:28:22.896Z,9072
2017-10-12T11:29:37.059Z,9760
2017-10-12T11:30:38.945Z,9248
2017-10-12T11:31:40.907Z,8472
2017-10-12T11:32:42.772Z,7620
2017-10-12T11:33:44.606Z,6808
2017-10-12T11:34:46.443Z,6176
2017-10-12T11:35:48.317Z,5904
2017-10-12T11:36:50.207Z,5564
2017-10-12T11:37:52.100Z,4996
2017-10-12T11:39:06.268Z,5020
2017-10-12T11:40:08.180Z,4936
2017-10-12T11:41:10.066Z,4852
2017-10-12T11:42:11.955Z,4628
2017-10-12T11:43:13.782Z,4772
2017-10-12T11:44:15.610Z,4824
2017-10-12T11:45:17.498Z,4868
2017-10-12T11:46:19.388Z,5016
2017-10-12T11:47:21.280Z,5092
2017-10-12T11:48:35.497Z,5492
2017-10-12T11:49:37.381Z,5708
2017-10-12T11:50:39.358Z,5632
2017-10-12T11:51:41.231Z,5872
2017-10-12T11:52:43.062Z,6688
2017-10-12T11:53:44.894Z,6608
2017-10-12T11:54:46.833Z,5592
2017-10-12T11:55:48.720Z,5816
2017-10-12T11:56:50.608Z,5924
2017-10-12T11:58:04.785Z,6128
2017-10-12T11:59:06.680Z,5664
2017-10-12T12:00:08.565Z,5624
2017-10-12T12:01:10.454Z,6072
2017-10-12T12:02:12.285Z,6932
2017-10-12T12:03:14.112Z,8196
2017-10-12T12:04:15.996Z,7908
2017-10-12T12:05:17.893Z,7304
2017-10-12T12:06:19.791Z,7104
2017-10-12T12:07:33.947Z,6788
2017-10-12T12:08:35.847Z,6516
2017-10-12T12:09:37.733Z,6404
2017-10-12T12:10:39.730Z,6488
2017-10-12T12:11:41.589Z,6264
2017-10-12T12:12:43.809Z,6240
2017-10-12T12:13:45.836Z,6360
2017-10-12T12:14:47.722Z,6084
2017-10-12T12:15:49.612Z,6260
2017-10-12T12:17:03.776Z,6332
2017-10-12T12:18:05.757Z,5988
2017-10-12T12:19:07.644Z,5932
2017-10-12T12:20:09.600Z,5956
2017-10-12T12:21:11.487Z,6304
2017-10-12T12:22:13.314Z,6312
2017-10-12T12:23:15.201Z,6376
2017-10-12T12:24:17.171Z,6648
2017-10-12T12:25:19.057Z,7180
2017-10-12T12:26:33.235Z,8148
2017-10-12T12:27:35.178Z,8368
2017-10-12T12:28:37.183Z,8160
2017-10-12T12:29:39.110Z,8716
2017-10-12T12:30:40.920Z,9320
2017-10-12T12:31:42.747Z,9072
2017-10-12T12:32:44.647Z,9112
2017-10-12T12:33:46.581Z,9384
2017-10-12T12:34:48.543Z,9228
2017-10-12T12:36:02.707Z,8844
2017-10-12T12:37:04.591Z,7976
2017-10-12T12:38:06.547Z,8072
2017-10-12T12:39:08.435Z,8488
2017-10-12T12:40:10.267Z,7892
2017-10-12T12:41:12.092Z,7588
2017-10-12T12:42:13.982Z,7636
2017-10-12T12:43:15.881Z,7184
2017-10-12T12:44:17.813Z,6212
2017-10-12T12:45:31.983Z,5740
2017-10-12T12:46:33.870Z,5864
2017-10-12T12:47:35.768Z,6044
2017-10-12T12:48:37.658Z,6260
2017-10-12T12:49:39.488Z,6364
2017-10-12T12:50:41.318Z,7176
2017-10-12T12:51:43.201Z,7572
2017-10-12T12:52:45.094Z,7552
2017-10-12T12:53:46.977Z,7348
2017-10-12T12:55:01.153Z,6464
2017-10-12T12:56:03.029Z,5780
2017-10-12T12:57:04.934Z,5816
2017-10-12T12:58:06.845Z,5604
2017-10-12T12:59:08.654Z,5176
2017-10-12T13:00:10.522Z,5172
2017-10-12T13:01:12.382Z,5388
2017-10-12T13:02:14.323Z,5404
2017-10-12T13:03:16.398Z,5516
2017-10-12T13:04:30.574Z,6072
2017-10-12T13:05:32.502Z,6464
2017-10-12T13:06:34.392Z,6472
2017-10-12T13:07:36.279Z,6664
2017-10-12T13:08:38.176Z,7356
2017-10-12T13:09:40.065Z,7824
2017-10-12T13:10:41.953Z,7412
2017-10-12T13:11:43.840Z,6536
2017-10-12T13:12:45.734Z,6576
2017-10-12T13:13:59.903Z,6536
2017-10-12T13:15:01.854Z,5404
2017-10-12T13:16:03.741Z,4968
2017-10-12T13:17:05.636Z,4872
2017-10-12T13:18:07.462Z,5288
2017-10-12T13:19:09.287Z,5712
2017-10-12T13:20:11.175Z,6272
2017-10-12T13:21:13.068Z,6492
2017-10-12T13:22:14.962Z,6312
2017-10-12T13:23:29.133Z,5952
2017-10-12T13:24:31.018Z,5476
2017-10-12T13:25:32.907Z,5304
2017-10-12T13:26:34.795Z,5404
2017-10-12T13:27:36.621Z,5468
2017-10-12T13:28:38.447Z,5544
2017-10-12T13:29:40.343Z,5828
2017-10-12T13:30:42.229Z,5672
2017-10-12T13:31:44.117Z,5212
2017-10-12T13:32:58.282Z,4896
2017-10-12T13:34:00.168Z,4984
2017-10-12T13:35:02.058Z,5284
2017-10-12T13:36:03.945Z,5604
2017-10-12T13:37:06.230Z,5748
2017-10-12T13:38:08.114Z,5656
2017-10-12T13:39:10.014Z,5612
2017-10-12T13:40:11.889Z,6024
2017-10-12T13:41:13.777Z,7484
2017-10-12T13:42:27.947Z,8960
2017-10-12T13:43:29.839Z,8988
2017-10-12T13:44:31.824Z,8296
2017-10-12T13:45:33.739Z,7208
2017-10-12T13:46:35.644Z,7520
2017-10-12T13:47:37.492Z,8228
2017-10-12T13:48:39.862Z,8620
2017-10-12T13:49:41.784Z,9352
2017-10-12T13:50:43.614Z,9176
2017-10-12T13:51:57.776Z,7960
2017-10-12T13:52:59.742Z,7176
2017-10-12T13:54:01.672Z,6368
2017-10-12T13:55:03.559Z,6028
2017-10-12T13:56:05.802Z,5896
2017-10-12T13:57:07.746Z,5760
2017-10-12T13:58:09.633Z,5500
2017-10-12T13:59:11.659Z,5632
2017-10-12T14:00:13.745Z,5752
2017-10-12T14:01:28.007Z,5800
2017-10-12T14:02:29.894Z,6364
2017-10-12T14:03:31.846Z,6448
2017-10-12T14:04:33.735Z,5920
2017-10-12T14:05:35.615Z,5388
2017-10-12T14:06:37.520Z,4768
2017-10-12T14:07:39.414Z,4664
2017-10-12T14:08:41.398Z,5384
2017-10-12T14:09:43.320Z,7040
2017-10-12T14:10:57.483Z,7580
2017-10-12T14:11:59.372Z,6072
2017-10-12T14:13:01.260Z,5012
2017-10-12T14:14:03.147Z,4992
2017-10-12T14:15:04.977Z,5472
2017-10-12T14:16:06.825Z,5472
2017-10-12T14:17:08.715Z,5528
2017-10-12T14:18:10.624Z,5536
2017-10-12T14:19:12.511Z,5516
2017-10-12T14:20:26.772Z,5384
2017-10-12T14:21:28.693Z,5168
2017-10-12T14:22:30.581Z,4840
2017-10-12T14:23:32.467Z,4588
2017-10-12T14:24:34.299Z,4400
2017-10-12T14:25:36.127Z,4356
2017-10-12T14:26:38.014Z,4648
2017-10-12T14:27:39.903Z,5300
2017-10-12T14:28:41.826Z,5776
2017-10-12T14:29:56.043Z,5120
2017-10-12T14:30:57.939Z,4572
2017-10-12T14:31:59.829Z,4172